Yellow Mule RAWS (NWS)

Elevation
9200ft
Aggregated by Synoptic Data
Date/Time Wind Direction Wind Speed knots Wind Gust knots RH % Accumulated Precip Inches Air Temp Fahrenheit
2024-04-22 11:04 SSW 10 17 25 1.39 32
2024-04-22 10:04 SSW 10 22 40 1.39 29
2024-04-22 09:04 SSW 10 20 52 1.39 25
2024-04-22 08:04 SSW 13 21 61 1.39 19
2024-04-22 07:04 SSW 12 16 63 1.39 17
2024-04-22 06:04 SW 10 16 62 1.39 16
2024-04-22 05:04 SW 12 16 62 1.39 16
2024-04-22 04:04 SW 9 12 60 1.39 18
2024-04-22 03:04 SW 9 13 60 1.39 19
2024-04-22 02:04 WSW 9 10 58 1.39 21
2024-04-22 01:04 WSW 7 11 62 1.39 23
2024-04-22 00:04 NW 8 14 68 1.39 26
2024-04-21 23:04 SSW 8 12 81 1.39 27
2024-04-21 22:04 SSW 6 10 69 1.39 31
2024-04-21 21:04 W 7 17 57 1.39 34
2024-04-21 20:04 WSW 12 22 48 1.39 38
2024-04-21 19:04 SSW 9 27 59 1.39 38
2024-04-21 18:04 S 16 34 65 1.39 37
2024-04-21 17:04 SSW 9 26 56 1.39 39
2024-04-21 16:04 S 9 37 60 1.39 38
2024-04-21 15:04 S 23 36 38 1.39 44
2024-04-21 14:04 S 19 39 42 1.39 43
2024-04-21 13:04 S 19 38 39 1.39 44
2024-04-21 12:04 S 10 25 38 1.39 47
2024-04-21 11:04 SE 9 17 42 1.39 42
2024-04-21 10:04 SSE 10 18 40 1.39 41
2024-04-21 09:04 SSE 6 15 42 1.39 35
2024-04-21 08:04 S 8 10 46 1.39 29
2024-04-21 07:04 SSE 9 13 44 1.39 29
2024-04-21 06:04 SSE 10 13 45 1.39 28
2024-04-21 05:04 SSE 8 10 43 1.39 28
2024-04-21 04:04 SSE 5 9 47 1.39 26
2024-04-21 03:04 SSE 4 8 44 1.39 27
2024-04-21 02:04 SSE 5 7 45 1.39 27
2024-04-21 01:04 S 4 9 43 1.39 25
2024-04-21 00:04 S 7 11 42 1.39 27
2024-04-20 23:04 S 6 10 47 1.39 26
2024-04-20 22:04 SSW 9 14 40 1.39 28
2024-04-20 21:04 SSW 10 13 45 1.39 28
2024-04-20 20:04 SSW 9 14 46 1.39 29
2024-04-20 19:04 SSW 9 14 42 1.39 32
2024-04-20 18:04 SW 9 15 41 1.39 33
2024-04-20 17:04 SW 10 14 45 1.39 32
2024-04-20 16:04 WSW 8 12 45 1.39 32
2024-04-20 15:04 WSW 9 12 48 1.39 31
2024-04-20 14:04 W 6 11 53 1.39 32
2024-04-20 13:04 SW 8 11 59 1.39 30
2024-04-20 12:04 W 4 6 68 1.39 32
2024-04-20 11:04 NNE 3 6 70 1.39 37